Time;durP1;ratioP1;P1;durP2;ratioP2;P2;SDS_P1;SDS_P2;PMS_P1;PMS_P2;Temp;Humidity;BMP_temperature;BMP_pressure;BME280_temperature;BME280_humidity;BME280_pressure;Samples;Min_cycle;Max_cycle;Signal;HPM_P1;HPM_P2
2023/02/09 00:01:29;;;;;;;12.03;9.30;;;0.60;99.90;;;;;;4933679;29;20548;-78
2023/02/09 00:03:57;;;;;;;14.93;9.87;;;0.60;99.90;;;;;;4947664;29;20760;-78
2023/02/09 00:06:25;;;;;;;12.80;9.47;;;0.60;99.90;;;;;;4944630;28;20904;-78
2023/02/09 00:08:52;;;;;;;12.63;8.97;;;0.60;99.90;;;;;;4947708;28;20201;-77
2023/02/09 00:13:21;;;;;;;13.60;9.27;;;0.60;99.90;;;;;;4947205;29;20496;-78
2023/02/09 00:14:07;;;;;;;13.27;9.20;;;0.60;99.90;;;;;;4939046;29;20317;-77
2023/02/09 00:16:35;;;;;;;12.53;8.97;;;0.70;99.90;;;;;;4927988;29;20206;-78
2023/02/09 00:19:02;;;;;;;14.33;9.63;;;0.70;99.90;;;;;;4927776;29;20243;-78
2023/02/09 00:21:29;;;;;;;13.77;9.97;;;0.70;99.90;;;;;;4927203;29;20214;-77
2023/02/09 00:23:58;;;;;;;13.87;9.13;;;0.70;99.90;;;;;;4945600;29;20209;-79
2023/02/09 00:26:25;;;;;;;12.50;8.60;;;0.70;99.90;;;;;;4946229;29;20215;-79
2023/02/09 00:28:52;;;;;;;15.33;9.27;;;0.70;99.90;;;;;;4946771;29;20205;-79
2023/02/09 00:31:19;;;;;;;11.27;8.63;;;0.70;99.90;;;;;;4929934;29;20214;-79
2023/02/09 00:33:47;;;;;;;14.53;9.07;;;0.70;99.90;;;;;;4926534;29;20202;-78
2023/02/09 00:36:15;;;;;;;13.00;8.73;;;0.70;99.90;;;;;;4927634;29;20329;-79
2023/02/09 00:38:43;;;;;;;11.20;8.43;;;0.70;99.90;;;;;;4927278;29;20878;-78
2023/02/09 00:41:11;;;;;;;13.00;9.03;;;0.70;99.90;;;;;;4927296;29;20265;-79
2023/02/09 00:43:38;;;;;;;11.53;8.60;;;0.70;99.90;;;;;;4927821;29;20212;-78
2023/02/09 00:46:06;;;;;;;12.63;9.13;;;0.70;99.90;;;;;;4927306;29;20230;-79
2023/02/09 00:48:33;;;;;;;13.70;8.67;;;0.70;99.90;;;;;;4926410;29;20876;-80
2023/02/09 00:51:01;;;;;;;11.47;8.67;;;0.70;99.90;;;;;;4927148;29;20194;-78
2023/02/09 00:53:28;;;;;;;12.00;8.40;;;0.80;99.90;;;;;;4927520;29;20229;-79
2023/02/09 00:55:55;;;;;;;13.00;8.73;;;0.80;99.90;;;;;;4927184;29;20206;-81
2023/02/09 00:58:22;;;;;;;13.13;8.93;;;0.80;99.90;;;;;;4926950;29;20202;-81
2023/02/09 01:00:49;;;;;;;12.63;8.47;;;0.80;99.90;;;;;;4926759;29;20213;-80
2023/02/09 01:03:16;;;;;;;13.00;9.00;;;0.80;99.90;;;;;;4927052;29;20241;-79
2023/02/09 01:05:43;;;;;;;11.37;8.30;;;0.90;99.90;;;;;;4926783;29;20321;-79
2023/02/09 01:08:12;;;;;;;12.70;8.43;;;1.00;99.90;;;;;;4926676;29;20206;-78
2023/02/09 01:10:39;;;;;;;11.50;8.03;;;0.90;99.90;;;;;;4927835;29;20293;-80
2023/02/09 01:13:06;;;;;;;13.87;8.37;;;0.90;99.90;;;;;;4928295;29;20206;-80
2023/02/09 01:15:33;;;;;;;13.43;8.67;;;0.90;99.90;;;;;;4927714;29;20244;-80
2023/02/09 01:18:00;;;;;;;13.03;8.77;;;0.90;99.90;;;;;;4928286;29;20361;-80
2023/02/09 01:20:28;;;;;;;13.87;8.10;;;0.80;99.90;;;;;;4942433;29;20213;-81
2023/02/09 01:22:55;;;;;;;15.03;9.23;;;0.80;99.90;;;;;;4947193;29;20620;-80
2023/02/09 01:25:23;;;;;;;17.53;8.80;;;0.80;99.90;;;;;;4946361;29;20345;-81
2023/02/09 01:27:50;;;;;;;10.80;8.30;;;0.80;99.90;;;;;;4944944;29;20219;-80
2023/02/09 01:30:18;;;;;;;13.13;9.23;;;0.80;99.90;;;;;;4925981;29;20224;-81
2023/02/09 01:32:44;;;;;;;12.93;8.80;;;0.80;99.90;;;;;;4925591;29;20209;-80
2023/02/09 01:35:11;;;;;;;14.13;9.13;;;0.70;99.90;;;;;;4927714;29;20205;-81
2023/02/09 01:37:38;;;;;;;11.93;8.80;;;0.70;99.90;;;;;;4927758;29;20221;-81
2023/02/09 01:40:07;;;;;;;10.00;7.80;;;0.70;99.90;;;;;;4928727;29;20210;-82
2023/02/09 01:42:36;;;;;;;11.90;8.10;;;0.70;99.90;;;;;;4928135;29;20208;-80
2023/02/09 01:45:16;;;;;;;12.70;8.27;;;0.70;99.90;;;;;;4927756;29;20737;-82
2023/02/09 01:47:46;;;;;;;11.47;7.87;;;0.70;99.90;;;;;;4946827;29;20520;-80
2023/02/09 01:50:14;;;;;;;11.87;7.87;;;0.70;99.90;;;;;;4947311;29;20209;-82
2023/02/09 01:52:43;;;;;;;11.83;8.87;;;0.70;99.90;;;;;;4947017;29;20294;-81
2023/02/09 01:55:14;;;;;;;12.47;8.90;;;0.70;99.90;;;;;;4931567;28;20292;-81
2023/02/09 01:57:47;;;;;;;12.80;8.77;;;0.80;99.90;;;;;;4926971;29;20748;-82
2023/02/09 02:00:17;;;;;;;14.70;8.77;;;0.80;99.90;;;;;;4926616;29;20688;-82
2023/02/09 02:02:47;;;;;;;9.83;7.93;;;0.80;99.90;;;;;;4926196;29;20597;-81
2023/02/09 02:05:15;;;;;;;11.43;8.67;;;0.80;99.90;;;;;;4926214;29;20242;-81
2023/02/09 02:07:48;;;;;;;12.67;8.53;;;0.80;99.90;;;;;;4926673;29;20292;-80
2023/02/09 02:10:15;;;;;;;10.63;7.43;;;0.80;99.90;;;;;;4927596;29;20190;-81
2023/02/09 02:12:44;;;;;;;12.63;8.07;;;0.70;99.90;;;;;;4926556;29;20190;-80
2023/02/09 02:15:11;;;;;;;11.53;7.60;;;0.70;99.90;;;;;;4943163;28;20335;-80
2023/02/09 02:17:53;;;;;;;12.33;7.90;;;0.80;99.90;;;;;;4945057;29;20201;-79
2023/02/09 02:20:52;;;;;;;18.13;8.80;;;0.90;99.90;;;;;;4939083;29;20296;-81
2023/02/09 02:23:26;;;;;;;14.13;7.80;;;0.90;99.90;;;;;;4927359;29;20209;-82
2023/02/09 02:26:29;;;;;;;14.40;8.90;;;0.90;99.90;;;;;;4927707;29;20217;-80
2023/02/09 02:29:24;;;;;;;12.23;8.60;;;0.90;99.90;;;;;;4925681;29;20201;-82
2023/02/09 02:32:26;;;;;;;11.60;7.77;;;1.00;99.90;;;;;;4929915;29;20673;-82
2023/02/09 02:35:00;;;;;;;10.83;7.53;;;1.00;99.90;;;;;;4915252;29;20312;-81
2023/02/09 02:37:51;;;;;;;11.63;7.90;;;1.00;99.90;;;;;;4931590;29;20197;-82
2023/02/09 02:40:27;;;;;;;11.63;7.50;;;1.00;99.90;;;;;;4930966;29;20203;-82
2023/02/09 02:42:58;;;;;;;10.23;7.20;;;1.00;99.90;;;;;;4931247;29;20202;-83
2023/02/09 02:45:42;;;;;;;10.97;7.63;;;1.00;99.90;;;;;;4932483;29;20222;-83
2023/02/09 02:48:20;;;;;;;11.60;8.33;;;1.00;99.90;;;;;;4930432;29;20198;-83
2023/02/09 02:51:00;;;;;;;11.00;7.50;;;1.00;99.90;;;;;;4929385;29;20281;-81
2023/02/09 02:53:30;;;;;;;10.00;7.80;;;0.90;99.90;;;;;;4929321;29;20660;-83
2023/02/09 02:56:02;;;;;;;17.10;8.47;;;1.00;99.90;;;;;;4929944;29;20210;-82
2023/02/09 02:58:31;;;;;;;13.90;8.20;;;1.00;99.90;;;;;;4929581;29;20589;-82
2023/02/09 03:01:01;;;;;;;13.97;7.97;;;1.00;99.90;;;;;;4930388;29;20203;-82
2023/02/09 03:03:33;;;;;;;10.50;7.57;;;1.00;99.90;;;;;;4930665;29;20253;-81
2023/02/09 03:06:04;;;;;;;10.77;7.40;;;0.90;99.90;;;;;;4934267;29;20225;-81
2023/02/09 03:08:31;;;;;;;9.77;6.83;;;0.90;99.90;;;;;;4945752;29;20214;-81
2023/02/09 03:10:58;;;;;;;12.83;7.50;;;1.00;99.90;;;;;;4929963;29;20202;-81
2023/02/09 03:13:37;;;;;;;10.73;7.13;;;1.00;99.90;;;;;;4929542;29;20213;-82
2023/02/09 03:16:15;;;;;;;9.50;6.93;;;1.00;99.90;;;;;;4929074;28;20233;-82
2023/02/09 03:18:56;;;;;;;9.97;7.57;;;1.00;99.90;;;;;;4928060;29;20629;-82
2023/02/09 03:21:30;;;;;;;13.17;7.47;;;0.90;99.90;;;;;;4929094;29;20220;-84
2023/02/09 03:24:03;;;;;;;10.87;7.57;;;1.00;99.90;;;;;;4929894;29;20503;-81
2023/02/09 03:26:36;;;;;;;11.23;7.47;;;1.10;99.90;;;;;;4928436;29;20261;-81
2023/02/09 03:29:04;;;;;;;11.70;7.83;;;1.10;99.90;;;;;;4930080;29;20202;-81
2023/02/09 03:31:32;;;;;;;10.83;7.47;;;1.10;99.90;;;;;;4930485;29;20293;-81
2023/02/09 03:34:01;;;;;;;12.13;7.10;;;1.20;99.90;;;;;;4929824;29;20214;-82
2023/02/09 03:36:34;;;;;;;11.00;7.43;;;1.10;99.90;;;;;;4928859;29;20748;-82
2023/02/09 03:39:01;;;;;;;10.97;7.30;;;1.10;99.90;;;;;;4928978;29;20206;-83
2023/02/09 03:41:28;;;;;;;9.83;7.57;;;1.10;99.90;;;;;;4928355;29;20210;-81
2023/02/09 03:46:56;;;;;;;12.20;7.50;;;1.10;99.90;;;;;;4852882;29;20224;-82
2023/02/09 03:49:26;;;;;;;12.90;7.87;;;1.10;99.90;;;;;;4858146;29;20216;-82
2023/02/09 03:51:53;;;;;;;10.40;7.10;;;1.10;99.90;;;;;;4907508;29;20609;-81
2023/02/09 03:54:20;;;;;;;10.47;7.40;;;1.20;99.90;;;;;;4945364;28;20308;-83
2023/02/09 03:56:47;;;;;;;10.57;7.77;;;1.10;99.90;;;;;;4929146;29;20205;-82
2023/02/09 03:59:14;;;;;;;13.20;8.07;;;1.10;99.90;;;;;;4929180;29;20384;-82
2023/02/09 04:01:41;;;;;;;12.87;8.00;;;1.10;99.90;;;;;;4929257;29;20252;-83
2023/02/09 04:04:08;;;;;;;9.07;7.10;;;1.10;99.90;;;;;;4931407;29;20209;-83
2023/02/09 04:06:37;;;;;;;14.70;7.30;;;1.10;99.90;;;;;;4931029;29;20230;-82
2023/02/09 04:09:05;;;;;;;10.97;7.40;;;1.10;99.90;;;;;;4931568;29;20210;-82
2023/02/09 04:11:32;;;;;;;13.03;8.30;;;1.10;99.90;;;;;;4930832;29;20506;-81
2023/02/09 04:13:59;;;;;;;13.50;8.33;;;1.20;99.90;;;;;;4931875;29;20209;-82
2023/02/09 04:16:26;;;;;;;10.67;7.13;;;1.20;99.90;;;;;;4932308;29;20925;-82
2023/02/09 04:18:53;;;;;;;9.67;7.50;;;1.20;99.90;;;;;;4930714;29;20210;-83
2023/02/09 04:21:20;;;;;;;11.93;7.47;;;1.20;99.90;;;;;;4931839;29;20216;-81
2023/02/09 04:23:48;;;;;;;10.67;7.27;;;1.20;99.90;;;;;;4931273;29;20783;-83
2023/02/09 04:26:16;;;;;;;11.47;6.97;;;1.30;99.90;;;;;;4930934;29;20313;-84
2023/02/09 04:28:43;;;;;;;10.07;6.87;;;1.30;99.90;;;;;;4930937;29;20240;-83
2023/02/09 04:31:10;;;;;;;12.03;7.77;;;1.30;99.90;;;;;;4932238;29;20209;-81
2023/02/09 04:33:37;;;;;;;9.77;7.33;;;1.40;99.90;;;;;;4930917;29;20236;-83
2023/02/09 04:36:06;;;;;;;11.27;7.13;;;1.40;99.90;;;;;;4931724;29;20206;-83
2023/02/09 04:38:33;;;;;;;9.87;7.37;;;1.50;99.90;;;;;;4930704;29;20220;-81
2023/02/09 04:41:03;;;;;;;11.90;7.73;;;1.50;99.90;;;;;;4931682;29;20658;-82
2023/02/09 04:43:31;;;;;;;10.07;7.17;;;1.50;99.90;;;;;;4945428;29;20209;-81
2023/02/09 04:45:58;;;;;;;9.17;6.63;;;1.50;99.90;;;;;;4947011;29;20218;-82
2023/02/09 04:48:27;;;;;;;10.40;7.20;;;1.50;99.90;;;;;;4931536;29;20206;-82
2023/02/09 04:50:55;;;;;;;9.60;7.97;;;1.60;99.90;;;;;;4930854;29;20289;-82
2023/02/09 04:53:22;;;;;;;10.87;6.67;;;1.70;99.90;;;;;;4931064;29;20202;-81
2023/02/09 04:55:51;;;;;;;9.73;7.37;;;1.70;99.90;;;;;;4930362;29;20941;-81
2023/02/09 05:01:06;;;;;;;9.30;7.33;;;1.70;99.90;;;;;;4938847;29;20212;-82
2023/02/09 05:03:33;;;;;;;10.87;7.23;;;1.70;99.90;;;;;;4946048;29;20284;-81
2023/02/09 05:06:01;;;;;;;13.70;8.20;;;1.70;99.90;;;;;;4935337;28;20222;-79
2023/02/09 05:08:29;;;;;;;10.03;7.33;;;1.70;99.90;;;;;;4926323;29;20997;-78
2023/02/09 05:10:57;;;;;;;15.00;8.20;;;1.70;99.90;;;;;;4927860;29;20241;-80
2023/02/09 05:13:26;;;;;;;9.20;6.47;;;1.70;99.90;;;;;;4926939;29;20214;-80
2023/02/09 05:15:54;;;;;;;12.03;7.80;;;1.70;99.90;;;;;;4926504;29;20226;-80
2023/02/09 05:18:21;;;;;;;10.20;7.83;;;1.60;99.90;;;;;;4926883;29;20209;-79
2023/02/09 05:20:49;;;;;;;12.63;8.37;;;1.60;99.90;;;;;;4926298;29;20301;-78
2023/02/09 05:23:16;;;;;;;11.03;7.23;;;1.70;99.90;;;;;;4926296;29;20221;-79
2023/02/09 05:25:44;;;;;;;14.53;8.23;;;1.70;99.90;;;;;;4926734;29;20262;-78
2023/02/09 05:28:11;;;;;;;9.87;7.27;;;1.70;99.90;;;;;;4926699;29;20206;-80
2023/02/09 05:30:40;;;;;;;10.93;7.80;;;1.60;99.90;;;;;;4926813;29;20510;-80
2023/02/09 05:33:07;;;;;;;12.83;8.03;;;1.60;99.90;;;;;;4928478;29;20236;-81
2023/02/09 05:35:33;;;;;;;10.30;7.33;;;1.60;99.90;;;;;;4928680;29;20634;-80
2023/02/09 05:38:00;;;;;;;10.50;7.60;;;1.50;99.90;;;;;;4928333;29;20297;-81
2023/02/09 05:40:27;;;;;;;13.67;7.77;;;1.50;99.90;;;;;;4927973;29;20220;-79
2023/02/09 05:42:54;;;;;;;11.20;7.70;;;1.60;99.90;;;;;;4928323;29;20826;-81
2023/02/09 05:45:23;;;;;;;12.23;8.73;;;1.60;99.90;;;;;;4943315;29;20205;-80
2023/02/09 05:47:51;;;;;;;12.80;8.07;;;1.60;99.90;;;;;;4948210;29;20243;-81
2023/02/09 05:50:18;;;;;;;13.13;8.53;;;1.60;99.90;;;;;;4948271;29;20676;-81
2023/02/09 05:52:45;;;;;;;10.77;7.90;;;1.60;99.90;;;;;;4948483;29;20284;-81
2023/02/09 05:55:12;;;;;;;12.20;8.60;;;1.60;99.90;;;;;;4948699;29;20306;-81
2023/02/09 05:57:39;;;;;;;12.63;8.07;;;1.60;99.90;;;;;;4930964;29;20297;-81
2023/02/09 06:00:07;;;;;;;14.00;8.37;;;1.60;99.90;;;;;;4929947;29;20508;-81
2023/02/09 06:02:34;;;;;;;12.37;9.30;;;1.60;99.90;;;;;;4929144;29;20272;-82
2023/02/09 06:05:02;;;;;;;10.03;8.40;;;1.70;99.90;;;;;;4928382;29;20210;-82
2023/02/09 06:07:29;;;;;;;11.77;8.50;;;1.70;99.90;;;;;;4929449;29;20258;-81
2023/02/09 06:09:56;;;;;;;13.40;9.00;;;1.70;99.90;;;;;;4932615;29;20198;-82
2023/02/09 06:12:24;;;;;;;22.47;9.50;;;1.70;99.90;;;;;;4948511;29;20790;-82
2023/02/09 06:14:51;;;;;;;13.03;8.77;;;1.70;99.90;;;;;;4947764;28;20578;-82
2023/02/09 06:17:18;;;;;;;14.57;8.50;;;1.70;99.90;;;;;;4948017;29;20293;-81
2023/02/09 06:19:45;;;;;;;11.97;8.33;;;1.80;99.90;;;;;;4948215;29;20203;-81
2023/02/09 06:22:13;;;;;;;12.40;8.37;;;1.80;99.90;;;;;;4937568;29;20265;-82
2023/02/09 06:24:40;;;;;;;16.17;8.87;;;1.80;99.90;;;;;;4928402;29;20214;-82
2023/02/09 06:27:07;;;;;;;13.60;9.23;;;1.80;99.90;;;;;;4929330;29;20221;-82
2023/02/09 06:29:34;;;;;;;12.13;9.37;;;1.80;99.90;;;;;;4929773;29;20208;-81
2023/02/09 06:32:01;;;;;;;13.60;9.07;;;1.70;99.90;;;;;;4928492;29;20288;-81
2023/02/09 06:34:28;;;;;;;13.50;8.53;;;1.70;99.90;;;;;;4925745;29;20201;-82
2023/02/09 06:36:55;;;;;;;13.40;8.13;;;1.70;99.90;;;;;;4925964;29;20197;-78
2023/02/09 06:39:24;;;;;;;14.60;9.50;;;1.70;99.90;;;;;;4925920;29;20206;-80
2023/02/09 06:41:51;;;;;;;14.60;8.80;;;1.60;99.90;;;;;;4926178;29;20343;-80
2023/02/09 06:44:18;;;;;;;13.40;9.10;;;1.60;99.90;;;;;;4926227;29;20205;-80
2023/02/09 06:46:45;;;;;;;12.57;9.20;;;1.60;99.90;;;;;;4925093;29;20229;-79
2023/02/09 06:49:12;;;;;;;14.27;8.90;;;1.60;99.90;;;;;;4933584;29;20209;-81
2023/02/09 06:51:39;;;;;;;11.60;9.03;;;1.60;99.90;;;;;;4945037;29;21035;-81
2023/02/09 06:54:06;;;;;;;13.07;9.17;;;1.50;99.90;;;;;;4945586;28;20209;-80
2023/02/09 06:56:35;;;;;;;14.57;9.90;;;1.60;99.90;;;;;;4942128;29;20205;-79
2023/02/09 06:59:02;;;;;;;13.97;8.77;;;1.60;99.90;;;;;;4926191;29;20698;-79
2023/02/09 07:01:29;;;;;;;13.03;9.67;;;1.60;99.90;;;;;;4925303;29;20245;-80
2023/02/09 07:03:55;;;;;;;12.57;8.97;;;1.60;99.90;;;;;;4926247;29;20626;-82
2023/02/09 07:06:22;;;;;;;13.60;8.97;;;1.60;99.90;;;;;;4932940;29;20213;-81
2023/02/09 07:08:50;;;;;;;14.67;9.33;;;1.60;99.90;;;;;;4944305;29;20816;-80
2023/02/09 07:11:19;;;;;;;12.83;9.37;;;1.60;99.90;;;;;;4944078;29;20237;-81
2023/02/09 07:13:47;;;;;;;14.47;9.00;;;1.60;99.90;;;;;;4930729;29;20214;-79
2023/02/09 07:16:15;;;;;;;12.70;9.23;;;1.60;99.90;;;;;;4930725;29;20293;-81
2023/02/09 07:18:42;;;;;;;15.00;10.47;;;1.50;99.90;;;;;;4930779;29;20214;-80
2023/02/09 07:21:11;;;;;;;13.53;9.47;;;1.50;99.90;;;;;;4931344;29;20229;-82
2023/02/09 07:23:38;;;;;;;14.50;9.37;;;1.50;99.90;;;;;;4935270;29;20958;-82
2023/02/09 07:26:08;;;;;;;15.23;9.77;;;1.60;99.90;;;;;;4949834;29;20217;-82
2023/02/09 07:28:36;;;;;;;11.20;8.53;;;1.60;99.90;;;;;;4948305;29;20239;-81
2023/02/09 07:31:06;;;;;;;15.93;10.13;;;1.70;99.90;;;;;;4949832;28;20313;-79
2023/02/09 07:33:34;;;;;;;15.37;9.43;;;1.70;99.90;;;;;;4932844;29;20214;-79
2023/02/09 07:36:03;;;;;;;16.40;9.43;;;1.60;99.90;;;;;;4929815;29;20222;-81
2023/02/09 07:38:30;;;;;;;14.13;9.47;;;1.60;99.90;;;;;;4929694;29;20228;-81
2023/02/09 07:40:59;;;;;;;13.13;10.03;;;1.70;99.90;;;;;;4930738;29;20225;-81
2023/02/09 07:43:25;;;;;;;12.33;8.97;;;1.60;99.90;;;;;;4929633;29;20217;-81
2023/02/09 07:45:53;;;;;;;11.23;8.20;;;1.60;99.90;;;;;;4931842;29;20581;-82
2023/02/09 07:48:22;;;;;;;14.93;9.83;;;1.60;99.90;;;;;;4932811;29;20253;-84
2023/02/09 07:50:49;;;;;;;11.20;8.83;;;1.60;99.90;;;;;;4945956;29;20264;-82
2023/02/09 07:53:16;;;;;;;15.03;10.03;;;1.70;99.90;;;;;;4951648;29;20209;-84
2023/02/09 07:55:43;;;;;;;14.13;9.40;;;1.70;99.90;;;;;;4951532;29;20292;-83
2023/02/09 07:58:10;;;;;;;13.17;9.30;;;1.70;99.90;;;;;;4943494;29;20290;-85
2023/02/09 08:00:37;;;;;;;14.27;9.87;;;1.70;99.90;;;;;;4933654;29;20345;-83
2023/02/09 08:03:05;;;;;;;12.77;9.40;;;1.70;99.90;;;;;;4932072;29;20241;-82
2023/02/09 08:05:38;;;;;;;15.50;9.30;;;1.70;99.90;;;;;;4928031;28;20206;-81
2023/02/09 08:08:05;;;;;;;15.53;9.67;;;1.80;99.90;;;;;;4928697;29;20543;-79
2023/02/09 08:10:32;;;;;;;14.23;9.67;;;1.80;99.90;;;;;;4928979;29;20205;-78
2023/02/09 08:13:01;;;;;;;12.83;9.93;;;1.90;99.90;;;;;;4947918;28;20320;-79
2023/02/09 08:15:35;;;;;;;14.60;9.47;;;1.90;99.90;;;;;;4946757;29;20327;-79
2023/02/09 08:18:07;;;;;;;15.40;10.10;;;2.00;99.90;;;;;;4947322;28;20209;-79
2023/02/09 08:20:35;;;;;;;16.20;10.50;;;2.00;99.90;;;;;;4947418;29;20645;-79
2023/02/09 08:23:08;;;;;;;12.57;9.40;;;2.10;99.90;;;;;;4939171;29;20694;-80
2023/02/09 08:25:35;;;;;;;14.40;9.50;;;2.10;99.90;;;;;;4946278;28;20189;-79
2023/02/09 08:28:04;;;;;;;17.50;10.23;;;2.20;99.90;;;;;;4947561;29;20232;-80
2023/02/09 08:30:31;;;;;;;13.17;9.50;;;2.30;99.90;;;;;;4947042;29;20855;-80
2023/02/09 08:32:58;;;;;;;13.33;9.80;;;2.30;99.90;;;;;;4947235;28;20825;-81
2023/02/09 08:35:25;;;;;;;16.50;9.90;;;2.40;99.90;;;;;;4948898;29;20216;-80
2023/02/09 08:37:54;;;;;;;14.93;10.03;;;2.40;99.90;;;;;;4947691;28;20763;-80
2023/02/09 08:40:24;;;;;;;14.53;10.43;;;2.50;99.90;;;;;;4947910;29;20237;-80
2023/02/09 08:42:51;;;;;;;15.27;10.07;;;2.50;99.90;;;;;;4947649;29;20209;-79
2023/02/09 08:45:18;;;;;;;16.00;10.07;;;2.50;99.90;;;;;;4927351;29;20202;-79
2023/02/09 08:47:45;;;;;;;16.93;10.57;;;2.60;99.90;;;;;;4944878;29;20829;-79
2023/02/09 08:50:12;;;;;;;13.37;9.33;;;2.70;99.90;;;;;;4935019;29;20272;-81
2023/02/09 08:52:38;;;;;;;13.63;9.93;;;2.70;99.90;;;;;;4944682;29;20276;-80
2023/02/09 08:55:08;;;;;;;14.60;10.13;;;2.70;99.90;;;;;;4948264;28;20215;-83
2023/02/09 08:57:34;;;;;;;13.57;10.60;;;2.80;99.90;;;;;;4945168;29;20272;-84
2023/02/09 09:00:01;;;;;;;13.90;9.87;;;2.80;99.90;;;;;;4948519;29;20312;-82
2023/02/09 09:02:28;;;;;;;15.07;9.67;;;2.80;99.90;;;;;;4946961;28;20821;-81
2023/02/09 09:04:55;;;;;;;16.93;10.67;;;2.90;99.90;;;;;;4949971;29;20292;-81
2023/02/09 09:07:22;;;;;;;15.87;10.00;;;2.90;99.90;;;;;;4937664;29;20233;-82
2023/02/09 09:09:49;;;;;;;15.57;10.27;;;3.00;99.90;;;;;;4929545;29;20268;-83
2023/02/09 09:12:17;;;;;;;13.90;10.07;;;3.00;99.90;;;;;;4942817;29;20306;-82
2023/02/09 09:14:44;;;;;;;16.17;10.60;;;3.00;99.90;;;;;;4945574;28;20311;-82
2023/02/09 09:17:11;;;;;;;18.57;11.27;;;3.10;99.90;;;;;;4946796;29;20221;-81
2023/02/09 09:19:38;;;;;;;16.53;10.87;;;3.20;99.90;;;;;;4928099;29;20393;-82
2023/02/09 09:22:05;;;;;;;15.47;9.90;;;3.30;99.90;;;;;;4936205;29;20201;-82
2023/02/09 09:24:38;;;;;;;16.30;10.40;;;3.30;99.90;;;;;;4933877;29;20304;-82
2023/02/09 09:27:05;;;;;;;19.60;10.80;;;3.40;99.90;;;;;;4941237;29;20213;-83
2023/02/09 09:29:34;;;;;;;15.13;10.87;;;3.40;99.90;;;;;;4949846;29;20205;-84
2023/02/09 09:32:01;;;;;;;16.30;11.07;;;3.50;99.90;;;;;;4950628;29;20205;-83
2023/02/09 09:34:28;;;;;;;13.27;10.50;;;3.50;99.90;;;;;;4944450;29;20833;-83
2023/02/09 09:36:54;;;;;;;14.93;11.13;;;3.60;99.90;;;;;;4948577;29;20220;-82
2023/02/09 09:39:21;;;;;;;17.87;11.10;;;3.60;99.90;;;;;;4945501;29;20197;-79
2023/02/09 09:41:52;;;;;;;16.37;11.20;;;3.70;99.90;;;;;;4940292;29;20288;-79
2023/02/09 09:44:27;;;;;;;18.90;12.50;;;3.70;99.90;;;;;;4931542;29;20216;-83
2023/02/09 09:46:59;;;;;;;23.23;12.90;;;3.70;99.90;;;;;;4949103;29;20316;-83
2023/02/09 09:49:28;;;;;;;18.10;12.47;;;3.80;99.90;;;;;;4948040;29;20303;-83
2023/02/09 09:51:59;;;;;;;21.60;12.40;;;3.80;99.90;;;;;;4949080;29;20198;-83
2023/02/09 09:54:30;;;;;;;19.20;12.50;;;3.90;99.90;;;;;;4947406;29;20214;-80
2023/02/09 09:56:57;;;;;;;19.00;12.30;;;4.00;99.90;;;;;;4944237;29;20660;-83
2023/02/09 09:59:29;;;;;;;17.77;11.67;;;4.10;99.90;;;;;;4944737;29;20221;-82
2023/02/09 10:01:58;;;;;;;19.50;12.17;;;4.10;99.90;;;;;;4943385;29;20524;-83
2023/02/09 10:04:28;;;;;;;19.30;11.90;;;4.10;99.90;;;;;;4940801;29;20212;-82
2023/02/09 10:07:00;;;;;;;18.87;12.70;;;4.20;99.90;;;;;;4948265;28;20209;-82
2023/02/09 10:09:37;;;;;;;19.83;12.33;;;4.30;99.90;;;;;;4946075;28;20279;-82
2023/02/09 10:12:15;;;;;;;17.30;12.60;;;4.40;99.90;;;;;;4946390;29;20205;-81
2023/02/09 10:14:42;;;;;;;18.03;13.77;;;4.50;99.90;;;;;;4943599;29;20247;-81
2023/02/09 10:17:11;;;;;;;19.23;13.07;;;4.60;99.90;;;;;;4935395;28;20945;-83
2023/02/09 10:19:37;;;;;;;18.30;12.50;;;4.80;99.90;;;;;;4946203;29;20197;-81
2023/02/09 10:22:10;;;;;;;19.50;12.37;;;4.90;99.90;;;;;;4947186;29;20346;-81
2023/02/09 10:24:38;;;;;;;19.53;13.43;;;5.00;99.90;;;;;;4927418;29;20252;-80
2023/02/09 10:27:11;;;;;;;18.47;14.00;;;5.10;99.90;;;;;;4933722;29;20541;-80
2023/02/09 10:29:42;;;;;;;24.63;14.43;;;5.20;99.90;;;;;;4943893;28;20232;-80
2023/02/09 10:32:16;;;;;;;20.43;13.80;;;5.30;99.90;;;;;;4946261;28;20380;-82
2023/02/09 10:34:47;;;;;;;22.20;13.47;;;5.40;99.90;;;;;;4939967;29;20208;-81
2023/02/09 10:37:23;;;;;;;24.60;15.43;;;5.40;99.90;;;;;;4938622;28;20209;-79
2023/02/09 10:40:06;;;;;;;22.17;14.23;;;5.50;99.90;;;;;;4944648;28;20209;-81
2023/02/09 10:42:35;;;;;;;24.70;14.87;;;5.50;99.90;;;;;;4942861;28;20228;-80
2023/02/09 10:45:13;;;;;;;27.63;16.37;;;5.60;99.90;;;;;;4925855;29;20288;-80
2023/02/09 10:47:42;;;;;;;20.60;13.90;;;5.60;99.90;;;;;;4942231;29;20217;-80
2023/02/09 10:50:18;;;;;;;22.87;13.97;;;5.70;99.90;;;;;;4946746;28;20201;-80
2023/02/09 10:52:56;;;;;;;21.20;14.00;;;5.70;99.90;;;;;;4941309;29;20264;-84
2023/02/09 10:55:26;;;;;;;24.17;13.67;;;5.80;99.90;;;;;;4943622;29;20646;-83
2023/02/09 10:58:05;;;;;;;22.57;15.43;;;6.00;99.90;;;;;;4948235;28;20292;-82
2023/02/09 11:00:37;;;;;;;26.20;15.70;;;6.10;99.90;;;;;;4931245;29;20210;-82
2023/02/09 11:03:16;;;;;;;27.97;16.33;;;6.20;99.90;;;;;;4945556;29;20247;-82
2023/02/09 11:05:45;;;;;;;24.23;15.60;;;6.30;99.90;;;;;;4948282;29;20316;-82
2023/02/09 11:08:20;;;;;;;24.00;16.20;;;6.30;99.90;;;;;;4944724;29;20233;-81
2023/02/09 11:11:02;;;;;;;24.53;16.63;;;6.30;99.90;;;;;;4950331;29;20291;-82
2023/02/09 11:13:29;;;;;;;23.80;14.73;;;6.30;99.90;;;;;;4940287;29;20216;-81
2023/02/09 11:16:26;;;;;;;22.97;15.07;;;6.30;99.90;;;;;;4931584;29;20602;-82
2023/02/09 11:19:03;;;;;;;23.27;16.03;;;6.30;99.90;;;;;;4929301;29;20615;-79
2023/02/09 11:21:45;;;;;;;20.27;15.53;;;6.40;99.90;;;;;;4928554;29;20209;-80
2023/02/09 11:24:20;;;;;;;19.27;14.77;;;6.50;99.90;;;;;;4929091;29;20210;-81
2023/02/09 11:26:51;;;;;;;22.40;15.83;;;6.40;99.90;;;;;;4945438;29;20193;-79
2023/02/09 11:29:26;;;;;;;21.83;15.17;;;6.40;99.90;;;;;;4928556;29;20591;-79
2023/02/09 11:32:22;;;;;;;25.40;15.67;;;6.50;99.90;;;;;;4929391;29;20288;-80
2023/02/09 11:35:09;;;;;;;23.37;16.33;;;6.50;99.90;;;;;;4930596;29;20213;-79
2023/02/09 11:37:47;;;;;;;27.57;15.97;;;6.60;99.90;;;;;;4947605;29;20400;-80
2023/02/09 11:40:23;;;;;;;24.30;14.90;;;6.60;99.90;;;;;;4948413;29;20284;-80
2023/02/09 11:42:59;;;;;;;22.00;15.33;;;6.60;99.90;;;;;;4936631;29;20292;-80
2023/02/09 11:45:33;;;;;;;21.30;15.93;;;6.60;99.90;;;;;;4928972;29;20252;-81
2023/02/09 11:48:10;;;;;;;22.70;16.07;;;6.60;99.90;;;;;;4927514;29;20210;-80
2023/02/09 11:50:47;;;;;;;23.43;15.63;;;6.70;99.90;;;;;;4926889;29;20182;-80
2023/02/09 11:53:22;;;;;;;28.07;17.33;;;6.60;99.90;;;;;;4927233;29;20661;-80
2023/02/09 11:55:54;;;;;;;20.77;15.70;;;6.60;99.90;;;;;;4927923;29;20201;-81
2023/02/09 11:58:41;;;;;;;27.73;16.67;;;6.60;99.90;;;;;;4929449;29;20301;-80
2023/02/09 12:01:18;;;;;;;22.37;15.53;;;6.60;99.90;;;;;;4927346;29;20870;-79
2023/02/09 12:04:01;;;;;;;19.67;15.03;;;6.60;99.90;;;;;;4928262;29;20321;-80
2023/02/09 12:06:35;;;;;;;23.40;17.13;;;6.60;99.90;;;;;;4927373;29;20837;-80
2023/02/09 12:09:15;;;;;;;22.00;14.47;;;6.60;99.90;;;;;;4926972;29;20233;-79
2023/02/09 12:11:49;;;;;;;26.03;17.03;;;6.60;99.90;;;;;;4946633;29;20501;-79
2023/02/09 12:14:43;;;;;;;27.33;17.00;;;6.60;99.90;;;;;;4936289;29;20251;-80
2023/02/09 12:17:14;;;;;;;28.37;17.17;;;6.50;99.90;;;;;;4949352;29;20208;-83
2023/02/09 12:19:45;;;;;;;24.03;15.17;;;6.50;99.90;;;;;;4934988;29;20210;-79
2023/02/09 12:22:49;;;;;;;24.77;15.37;;;6.50;99.90;;;;;;4928842;29;20574;-79
2023/02/09 12:25:24;;;;;;;32.00;17.63;;;6.60;99.90;;;;;;4921244;29;20214;-78
2023/02/09 12:28:15;;;;;;;25.73;15.27;;;6.60;99.90;;;;;;4940532;29;20212;-82
2023/02/09 12:31:05;;;;;;;28.27;15.13;;;6.70;99.90;;;;;;4949025;29;20216;-82
2023/02/09 12:33:35;;;;;;;23.10;15.23;;;6.80;99.90;;;;;;4948079;29;20288;-82
2023/02/09 12:36:04;;;;;;;25.60;14.70;;;6.80;99.90;;;;;;4932546;28;20293;-79
2023/02/09 12:39:03;;;;;;;26.60;15.23;;;6.90;99.90;;;;;;4937930;29;20237;-80
2023/02/09 12:42:10;;;;;;;33.60;18.17;;;7.00;99.90;;;;;;4886958;29;20196;-80
2023/02/09 12:44:38;;;;;;;29.37;17.63;;;7.10;99.90;;;;;;4945161;29;20271;-81
2023/02/09 12:47:56;;;;;;;32.90;18.10;;;7.30;99.90;;;;;;4927765;29;20222;-78
2023/02/09 12:50:47;;;;;;;34.93;18.70;;;7.30;99.90;;;;;;4926151;29;20206;-79
2023/02/09 12:53:54;;;;;;;32.73;17.73;;;7.40;99.90;;;;;;4926540;29;20197;-80
2023/02/09 12:56:32;;;;;;;36.43;19.27;;;7.40;99.90;;;;;;4938438;28;20209;-80
2023/02/09 12:59:16;;;;;;;38.90;20.47;;;7.50;99.90;;;;;;4946845;29;20189;-81
2023/02/09 13:02:14;;;;;;;34.37;18.93;;;7.50;99.90;;;;;;4939097;28;20320;-81
2023/02/09 13:04:51;;;;;;;29.60;19.43;;;7.50;99.90;;;;;;4941460;29;20244;-81
2023/02/09 13:07:26;;;;;;;33.90;20.73;;;7.50;99.90;;;;;;4945887;29;20211;-79
2023/02/09 13:09:55;;;;;;;30.90;21.43;;;7.50;99.90;;;;;;4946644;29;20213;-81